sensor_id;sensor_type;location;lat;lon;timestamp;P1;durP1;ratioP1;P2;durP2;ratioP2
59587;SDS011;45412;54.472;18.464;2022-08-21T00:00:47;10.00;;;5.50;;
59587;SDS011;45412;54.472;18.464;2022-08-21T00:03:36;10.10;;;6.10;;
59587;SDS011;45412;54.472;18.464;2022-08-21T00:06:24;10.80;;;5.40;;
59587;SDS011;45412;54.472;18.464;2022-08-21T00:09:12;10.00;;;5.40;;
59587;SDS011;45412;54.472;18.464;2022-08-21T00:12:00;14.60;;;5.80;;
59587;SDS011;45412;54.472;18.464;2022-08-21T00:14:49;9.20;;;5.40;;
59587;SDS011;45412;54.472;18.464;2022-08-21T00:17:43;9.20;;;5.10;;
59587;SDS011;45412;54.472;18.464;2022-08-21T00:20:32;9.20;;;5.50;;
59587;SDS011;45412;54.472;18.464;2022-08-21T00:23:21;9.50;;;5.20;;
59587;SDS011;45412;54.472;18.464;2022-08-21T00:26:10;8.90;;;5.10;;
59587;SDS011;45412;54.472;18.464;2022-08-21T00:28:58;8.20;;;4.90;;
59587;SDS011;45412;54.472;18.464;2022-08-21T00:31:48;8.70;;;5.00;;
59587;SDS011;45412;54.472;18.464;2022-08-21T00:34:38;8.60;;;5.00;;
59587;SDS011;45412;54.472;18.464;2022-08-21T00:37:26;8.50;;;4.20;;
59587;SDS011;45412;54.472;18.464;2022-08-21T00:40:20;9.00;;;5.10;;
59587;SDS011;45412;54.472;18.464;2022-08-21T00:43:13;9.40;;;5.30;;
59587;SDS011;45412;54.472;18.464;2022-08-21T00:46:06;8.00;;;4.60;;
59587;SDS011;45412;54.472;18.464;2022-08-21T00:48:55;8.60;;;4.70;;
59587;SDS011;45412;54.472;18.464;2022-08-21T00:51:56;8.30;;;4.30;;
59587;SDS011;45412;54.472;18.464;2022-08-21T00:54:48;8.20;;;4.10;;
59587;SDS011;45412;54.472;18.464;2022-08-21T00:57:42;8.20;;;4.40;;
59587;SDS011;45412;54.472;18.464;2022-08-21T01:00:40;7.70;;;3.70;;
59587;SDS011;45412;54.472;18.464;2022-08-21T01:03:30;7.70;;;4.20;;
59587;SDS011;45412;54.472;18.464;2022-08-21T01:06:21;7.60;;;3.40;;
59587;SDS011;45412;54.472;18.464;2022-08-21T01:09:09;7.70;;;3.70;;
59587;SDS011;45412;54.472;18.464;2022-08-21T01:11:58;7.60;;;3.80;;
59587;SDS011;45412;54.472;18.464;2022-08-21T01:14:47;7.60;;;3.60;;
59587;SDS011;45412;54.472;18.464;2022-08-21T01:17:36;7.80;;;3.70;;
59587;SDS011;45412;54.472;18.464;2022-08-21T01:20:24;7.90;;;3.70;;
59587;SDS011;45412;54.472;18.464;2022-08-21T01:23:18;7.50;;;4.00;;
59587;SDS011;45412;54.472;18.464;2022-08-21T01:26:07;8.60;;;4.30;;
59587;SDS011;45412;54.472;18.464;2022-08-21T01:29:02;8.60;;;4.20;;
59587;SDS011;45412;54.472;18.464;2022-08-21T01:31:59;9.20;;;4.80;;
59587;SDS011;45412;54.472;18.464;2022-08-21T01:34:51;7.90;;;4.20;;
59587;SDS011;45412;54.472;18.464;2022-08-21T01:37:40;9.70;;;5.50;;
59587;SDS011;45412;54.472;18.464;2022-08-21T01:40:29;10.10;;;5.80;;
59587;SDS011;45412;54.472;18.464;2022-08-21T01:43:17;8.90;;;5.60;;
59587;SDS011;45412;54.472;18.464;2022-08-21T01:46:12;9.00;;;5.80;;
59587;SDS011;45412;54.472;18.464;2022-08-21T01:49:01;9.80;;;6.70;;
59587;SDS011;45412;54.472;18.464;2022-08-21T01:51:50;11.40;;;6.70;;
59587;SDS011;45412;54.472;18.464;2022-08-21T01:54:39;10.50;;;7.20;;
59587;SDS011;45412;54.472;18.464;2022-08-21T01:57:28;10.80;;;7.00;;
59587;SDS011;45412;54.472;18.464;2022-08-21T02:00:19;11.50;;;7.20;;
59587;SDS011;45412;54.472;18.464;2022-08-21T02:03:10;10.80;;;7.20;;
59587;SDS011;45412;54.472;18.464;2022-08-21T02:05:58;12.20;;;7.60;;
59587;SDS011;45412;54.472;18.464;2022-08-21T02:08:46;11.70;;;7.90;;
59587;SDS011;45412;54.472;18.464;2022-08-21T02:11:35;12.10;;;7.70;;
59587;SDS011;45412;54.472;18.464;2022-08-21T02:14:24;11.00;;;7.50;;
59587;SDS011;45412;54.472;18.464;2022-08-21T02:17:19;13.60;;;8.30;;
59587;SDS011;45412;54.472;18.464;2022-08-21T02:20:08;13.00;;;8.00;;
59587;SDS011;45412;54.472;18.464;2022-08-21T02:22:58;14.30;;;8.30;;
59587;SDS011;45412;54.472;18.464;2022-08-21T02:25:48;12.20;;;7.70;;
59587;SDS011;45412;54.472;18.464;2022-08-21T02:28:36;11.10;;;7.60;;
59587;SDS011;45412;54.472;18.464;2022-08-21T02:31:25;11.30;;;7.30;;
59587;SDS011;45412;54.472;18.464;2022-08-21T02:34:13;11.70;;;7.10;;
59587;SDS011;45412;54.472;18.464;2022-08-21T02:37:01;10.70;;;7.00;;
59587;SDS011;45412;54.472;18.464;2022-08-21T02:39:49;10.90;;;7.10;;
59587;SDS011;45412;54.472;18.464;2022-08-21T02:42:37;10.90;;;7.30;;
59587;SDS011;45412;54.472;18.464;2022-08-21T02:45:26;12.40;;;7.50;;
59587;SDS011;45412;54.472;18.464;2022-08-21T02:48:19;10.40;;;7.20;;
59587;SDS011;45412;54.472;18.464;2022-08-21T02:51:12;11.60;;;7.10;;
59587;SDS011;45412;54.472;18.464;2022-08-21T02:54:02;10.70;;;6.90;;
59587;SDS011;45412;54.472;18.464;2022-08-21T02:56:50;12.70;;;7.30;;
59587;SDS011;45412;54.472;18.464;2022-08-21T02:59:38;11.30;;;7.20;;
59587;SDS011;45412;54.472;18.464;2022-08-21T03:02:28;12.20;;;7.50;;
59587;SDS011;45412;54.472;18.464;2022-08-21T03:05:16;11.90;;;7.60;;
59587;SDS011;45412;54.472;18.464;2022-08-21T03:08:07;10.60;;;7.10;;
59587;SDS011;45412;54.472;18.464;2022-08-21T03:11:02;12.60;;;7.40;;
59587;SDS011;45412;54.472;18.464;2022-08-21T03:13:52;12.10;;;7.60;;
59587;SDS011;45412;54.472;18.464;2022-08-21T03:16:40;11.60;;;7.10;;
59587;SDS011;45412;54.472;18.464;2022-08-21T03:19:29;12.20;;;7.40;;
59587;SDS011;45412;54.472;18.464;2022-08-21T03:22:17;11.60;;;7.70;;
59587;SDS011;45412;54.472;18.464;2022-08-21T03:25:06;13.30;;;7.60;;
59587;SDS011;45412;54.472;18.464;2022-08-21T03:27:58;11.80;;;7.20;;
59587;SDS011;45412;54.472;18.464;2022-08-21T03:30:50;11.60;;;7.30;;
59587;SDS011;45412;54.472;18.464;2022-08-21T03:33:39;10.30;;;6.10;;
59587;SDS011;45412;54.472;18.464;2022-08-21T03:36:27;10.10;;;6.30;;
59587;SDS011;45412;54.472;18.464;2022-08-21T03:39:16;11.60;;;6.60;;
59587;SDS011;45412;54.472;18.464;2022-08-21T03:42:04;10.10;;;6.40;;
59587;SDS011;45412;54.472;18.464;2022-08-21T03:44:53;10.90;;;5.90;;
59587;SDS011;45412;54.472;18.464;2022-08-21T03:50:42;10.80;;;6.20;;
59587;SDS011;45412;54.472;18.464;2022-08-21T03:53:32;9.80;;;5.90;;
59587;SDS011;45412;54.472;18.464;2022-08-21T03:56:20;10.20;;;5.70;;
59587;SDS011;45412;54.472;18.464;2022-08-21T03:59:08;10.00;;;5.70;;
59587;SDS011;45412;54.472;18.464;2022-08-21T04:01:59;10.10;;;6.00;;
59587;SDS011;45412;54.472;18.464;2022-08-21T04:04:48;11.20;;;6.20;;
59587;SDS011;45412;54.472;18.464;2022-08-21T04:07:37;10.80;;;6.30;;
59587;SDS011;45412;54.472;18.464;2022-08-21T04:10:26;13.10;;;6.30;;
59587;SDS011;45412;54.472;18.464;2022-08-21T04:13:15;12.80;;;7.10;;
59587;SDS011;45412;54.472;18.464;2022-08-21T04:16:04;12.10;;;6.40;;
59587;SDS011;45412;54.472;18.464;2022-08-21T04:18:52;10.70;;;6.10;;
59587;SDS011;45412;54.472;18.464;2022-08-21T04:21:40;9.90;;;6.00;;
59587;SDS011;45412;54.472;18.464;2022-08-21T04:24:30;11.60;;;6.30;;
59587;SDS011;45412;54.472;18.464;2022-08-21T04:27:18;10.80;;;6.30;;
59587;SDS011;45412;54.472;18.464;2022-08-21T04:30:07;12.00;;;6.20;;
59587;SDS011;45412;54.472;18.464;2022-08-21T04:32:57;10.10;;;6.20;;
59587;SDS011;45412;54.472;18.464;2022-08-21T04:35:46;9.80;;;5.80;;
59587;SDS011;45412;54.472;18.464;2022-08-21T04:38:35;11.00;;;6.20;;
59587;SDS011;45412;54.472;18.464;2022-08-21T04:41:24;14.30;;;6.50;;
59587;SDS011;45412;54.472;18.464;2022-08-21T04:44:15;10.20;;;5.70;;
59587;SDS011;45412;54.472;18.464;2022-08-21T04:47:03;11.60;;;6.10;;
59587;SDS011;45412;54.472;18.464;2022-08-21T04:49:51;13.70;;;5.80;;
59587;SDS011;45412;54.472;18.464;2022-08-21T04:52:39;14.40;;;6.70;;
59587;SDS011;45412;54.472;18.464;2022-08-21T04:55:28;10.50;;;6.10;;
59587;SDS011;45412;54.472;18.464;2022-08-21T04:58:17;12.70;;;6.70;;
59587;SDS011;45412;54.472;18.464;2022-08-21T05:01:12;12.20;;;6.70;;
59587;SDS011;45412;54.472;18.464;2022-08-21T05:04:04;11.90;;;6.60;;
59587;SDS011;45412;54.472;18.464;2022-08-21T05:06:54;9.90;;;5.90;;
59587;SDS011;45412;54.472;18.464;2022-08-21T05:09:47;11.00;;;6.60;;
59587;SDS011;45412;54.472;18.464;2022-08-21T05:12:36;11.70;;;6.40;;
59587;SDS011;45412;54.472;18.464;2022-08-21T05:15:24;9.80;;;6.20;;
59587;SDS011;45412;54.472;18.464;2022-08-21T05:18:13;10.10;;;5.80;;
59587;SDS011;45412;54.472;18.464;2022-08-21T05:21:01;11.40;;;6.10;;
59587;SDS011;45412;54.472;18.464;2022-08-21T05:23:49;13.20;;;6.10;;
59587;SDS011;45412;54.472;18.464;2022-08-21T05:26:38;9.80;;;5.30;;
59587;SDS011;45412;54.472;18.464;2022-08-21T05:29:32;10.60;;;6.50;;
59587;SDS011;45412;54.472;18.464;2022-08-21T05:32:20;9.20;;;5.20;;
59587;SDS011;45412;54.472;18.464;2022-08-21T05:35:09;8.30;;;4.70;;
59587;SDS011;45412;54.472;18.464;2022-08-21T05:37:57;9.60;;;4.70;;
59587;SDS011;45412;54.472;18.464;2022-08-21T05:40:46;8.10;;;4.50;;
59587;SDS011;45412;54.472;18.464;2022-08-21T05:43:34;9.60;;;5.20;;
59587;SDS011;45412;54.472;18.464;2022-08-21T05:46:23;10.10;;;4.50;;
59587;SDS011;45412;54.472;18.464;2022-08-21T05:49:12;7.70;;;4.40;;
59587;SDS011;45412;54.472;18.464;2022-08-21T05:52:01;8.60;;;4.90;;
59587;SDS011;45412;54.472;18.464;2022-08-21T05:54:49;8.80;;;4.80;;
59587;SDS011;45412;54.472;18.464;2022-08-21T05:57:37;19.90;;;16.00;;
59587;SDS011;45412;54.472;18.464;2022-08-21T06:00:28;8.70;;;5.30;;
59587;SDS011;45412;54.472;18.464;2022-08-21T06:03:25;8.70;;;5.00;;
59587;SDS011;45412;54.472;18.464;2022-08-21T06:06:15;8.30;;;4.90;;
59587;SDS011;45412;54.472;18.464;2022-08-21T06:09:04;9.10;;;5.10;;
59587;SDS011;45412;54.472;18.464;2022-08-21T06:11:52;8.50;;;4.90;;
59587;SDS011;45412;54.472;18.464;2022-08-21T06:14:41;8.20;;;4.40;;
59587;SDS011;45412;54.472;18.464;2022-08-21T06:17:30;8.00;;;4.40;;
59587;SDS011;45412;54.472;18.464;2022-08-21T06:20:18;7.20;;;3.70;;
59587;SDS011;45412;54.472;18.464;2022-08-21T06:23:07;7.70;;;4.30;;
59587;SDS011;45412;54.472;18.464;2022-08-21T06:25:56;7.80;;;4.10;;
59587;SDS011;45412;54.472;18.464;2022-08-21T06:28:44;10.00;;;5.80;;
59587;SDS011;45412;54.472;18.464;2022-08-21T06:31:32;7.50;;;3.80;;
59587;SDS011;45412;54.472;18.464;2022-08-21T06:34:20;7.70;;;4.20;;
59587;SDS011;45412;54.472;18.464;2022-08-21T06:37:08;8.60;;;3.80;;
59587;SDS011;45412;54.472;18.464;2022-08-21T06:44:15;7.80;;;4.00;;
59587;SDS011;45412;54.472;18.464;2022-08-21T06:47:04;8.20;;;4.30;;
59587;SDS011;45412;54.472;18.464;2022-08-21T06:49:52;9.80;;;5.80;;
59587;SDS011;45412;54.472;18.464;2022-08-21T06:52:40;9.40;;;4.30;;
59587;SDS011;45412;54.472;18.464;2022-08-21T06:55:28;7.70;;;3.80;;
59587;SDS011;45412;54.472;18.464;2022-08-21T06:58:16;7.30;;;3.90;;
59587;SDS011;45412;54.472;18.464;2022-08-21T07:01:05;8.00;;;4.00;;
59587;SDS011;45412;54.472;18.464;2022-08-21T07:03:53;7.10;;;3.60;;
59587;SDS011;45412;54.472;18.464;2022-08-21T07:06:41;7.30;;;3.50;;
59587;SDS011;45412;54.472;18.464;2022-08-21T07:09:29;7.50;;;3.90;;
59587;SDS011;45412;54.472;18.464;2022-08-21T07:12:17;7.90;;;3.60;;
59587;SDS011;45412;54.472;18.464;2022-08-21T07:15:07;7.10;;;3.30;;
59587;SDS011;45412;54.472;18.464;2022-08-21T07:17:57;6.80;;;3.40;;
59587;SDS011;45412;54.472;18.464;2022-08-21T07:20:46;13.10;;;6.70;;
59587;SDS011;45412;54.472;18.464;2022-08-21T07:23:38;7.20;;;3.70;;
59587;SDS011;45412;54.472;18.464;2022-08-21T07:26:29;8.10;;;3.70;;
59587;SDS011;45412;54.472;18.464;2022-08-21T07:29:17;7.10;;;3.50;;
59587;SDS011;45412;54.472;18.464;2022-08-21T07:32:08;7.50;;;3.40;;
59587;SDS011;45412;54.472;18.464;2022-08-21T07:34:58;8.00;;;3.80;;
59587;SDS011;45412;54.472;18.464;2022-08-21T07:37:47;7.20;;;3.40;;
59587;SDS011;45412;54.472;18.464;2022-08-21T07:40:36;7.30;;;3.50;;
59587;SDS011;45412;54.472;18.464;2022-08-21T07:43:24;7.40;;;3.40;;
59587;SDS011;45412;54.472;18.464;2022-08-21T07:46:14;7.40;;;3.70;;
59587;SDS011;45412;54.472;18.464;2022-08-21T07:49:03;7.30;;;3.40;;
59587;SDS011;45412;54.472;18.464;2022-08-21T07:51:51;9.10;;;4.40;;
59587;SDS011;45412;54.472;18.464;2022-08-21T07:54:38;7.90;;;3.70;;
59587;SDS011;45412;54.472;18.464;2022-08-21T07:57:26;8.70;;;3.80;;
59587;SDS011;45412;54.472;18.464;2022-08-21T08:00:17;7.60;;;3.70;;
59587;SDS011;45412;54.472;18.464;2022-08-21T08:03:08;7.40;;;3.70;;
59587;SDS011;45412;54.472;18.464;2022-08-21T08:05:57;8.70;;;4.00;;
59587;SDS011;45412;54.472;18.464;2022-08-21T08:08:47;7.80;;;3.30;;
59587;SDS011;45412;54.472;18.464;2022-08-21T08:11:35;8.20;;;3.60;;
59587;SDS011;45412;54.472;18.464;2022-08-21T08:14:27;8.40;;;3.50;;
59587;SDS011;45412;54.472;18.464;2022-08-21T08:17:18;8.50;;;3.40;;
59587;SDS011;45412;54.472;18.464;2022-08-21T08:20:10;8.90;;;3.50;;
59587;SDS011;45412;54.472;18.464;2022-08-21T08:23:00;7.40;;;3.20;;
59587;SDS011;45412;54.472;18.464;2022-08-21T08:25:48;10.00;;;3.50;;
59587;SDS011;45412;54.472;18.464;2022-08-21T08:28:36;10.00;;;3.80;;
59587;SDS011;45412;54.472;18.464;2022-08-21T08:31:25;9.50;;;3.50;;
59587;SDS011;45412;54.472;18.464;2022-08-21T08:34:12;9.50;;;3.50;;
59587;SDS011;45412;54.472;18.464;2022-08-21T08:37:12;8.20;;;3.40;;
59587;SDS011;45412;54.472;18.464;2022-08-21T08:40:01;9.70;;;3.30;;
59587;SDS011;45412;54.472;18.464;2022-08-21T08:42:51;8.90;;;4.00;;
59587;SDS011;45412;54.472;18.464;2022-08-21T08:45:42;9.00;;;3.40;;
59587;SDS011;45412;54.472;18.464;2022-08-21T08:48:57;10.40;;;3.90;;
59587;SDS011;45412;54.472;18.464;2022-08-21T08:51:55;9.40;;;4.00;;
59587;SDS011;45412;54.472;18.464;2022-08-21T08:55:12;8.20;;;3.80;;
59587;SDS011;45412;54.472;18.464;2022-08-21T08:58:02;8.80;;;3.30;;
59587;SDS011;45412;54.472;18.464;2022-08-21T09:00:52;7.90;;;3.30;;
59587;SDS011;45412;54.472;18.464;2022-08-21T09:03:42;8.10;;;2.90;;
59587;SDS011;45412;54.472;18.464;2022-08-21T09:06:45;9.30;;;3.10;;
59587;SDS011;45412;54.472;18.464;2022-08-21T09:26:14;8.30;;;2.80;;
59587;SDS011;45412;54.472;18.464;2022-08-21T09:29:04;8.20;;;3.20;;
59587;SDS011;45412;54.472;18.464;2022-08-21T09:31:57;8.80;;;3.50;;
59587;SDS011;45412;54.472;18.464;2022-08-21T09:37:56;9.10;;;3.30;;
59587;SDS011;45412;54.472;18.464;2022-08-21T09:40:58;7.90;;;3.10;;
59587;SDS011;45412;54.472;18.464;2022-08-21T09:43:53;8.70;;;3.40;;
59587;SDS011;45412;54.472;18.464;2022-08-21T09:46:50;7.40;;;3.00;;
59587;SDS011;45412;54.472;18.464;2022-08-21T09:49:42;7.90;;;3.20;;
59587;SDS011;45412;54.472;18.464;2022-08-21T09:52:30;7.00;;;2.80;;
59587;SDS011;45412;54.472;18.464;2022-08-21T09:55:37;7.30;;;3.10;;
59587;SDS011;45412;54.472;18.464;2022-08-21T09:58:54;7.90;;;3.40;;
59587;SDS011;45412;54.472;18.464;2022-08-21T10:01:46;8.20;;;2.90;;
59587;SDS011;45412;54.472;18.464;2022-08-21T10:04:36;7.10;;;2.90;;
59587;SDS011;45412;54.472;18.464;2022-08-21T10:07:27;8.70;;;3.00;;
59587;SDS011;45412;54.472;18.464;2022-08-21T10:10:25;7.70;;;3.10;;
59587;SDS011;45412;54.472;18.464;2022-08-21T10:13:40;8.40;;;2.80;;
59587;SDS011;45412;54.472;18.464;2022-08-21T10:17:58;7.60;;;2.80;;
59587;SDS011;45412;54.472;18.464;2022-08-21T10:21:00;8.40;;;2.90;;
59587;SDS011;45412;54.472;18.464;2022-08-21T10:30:56;8.60;;;2.90;;
59587;SDS011;45412;54.472;18.464;2022-08-21T10:37:18;8.00;;;2.60;;
59587;SDS011;45412;54.472;18.464;2022-08-21T10:40:42;7.80;;;2.50;;
59587;SDS011;45412;54.472;18.464;2022-08-21T10:47:04;8.40;;;2.30;;
59587;SDS011;45412;54.472;18.464;2022-08-21T10:50:39;6.50;;;2.40;;
59587;SDS011;45412;54.472;18.464;2022-08-21T10:53:44;6.80;;;2.20;;
59587;SDS011;45412;54.472;18.464;2022-08-21T10:56:39;7.00;;;2.20;;
59587;SDS011;45412;54.472;18.464;2022-08-21T10:59:44;8.30;;;2.70;;
59587;SDS011;45412;54.472;18.464;2022-08-21T11:05:51;7.20;;;2.80;;
59587;SDS011;45412;54.472;18.464;2022-08-21T11:08:44;6.90;;;2.60;;
59587;SDS011;45412;54.472;18.464;2022-08-21T11:11:50;7.30;;;2.70;;
59587;SDS011;45412;54.472;18.464;2022-08-21T11:15:05;7.70;;;2.70;;
59587;SDS011;45412;54.472;18.464;2022-08-21T11:18:55;8.00;;;2.60;;
59587;SDS011;45412;54.472;18.464;2022-08-21T11:22:07;7.40;;;2.40;;
59587;SDS011;45412;54.472;18.464;2022-08-21T11:25:00;6.40;;;1.90;;
59587;SDS011;45412;54.472;18.464;2022-08-21T11:28:13;10.30;;;2.80;;
59587;SDS011;45412;54.472;18.464;2022-08-21T11:44:27;7.90;;;2.20;;
59587;SDS011;45412;54.472;18.464;2022-08-21T11:47:33;8.40;;;2.40;;
59587;SDS011;45412;54.472;18.464;2022-08-21T11:50:30;6.70;;;2.00;;
59587;SDS011;45412;54.472;18.464;2022-08-21T11:56:43;8.70;;;2.20;;
59587;SDS011;45412;54.472;18.464;2022-08-21T12:00:28;8.40;;;2.20;;
59587;SDS011;45412;54.472;18.464;2022-08-21T12:03:29;6.80;;;2.20;;
59587;SDS011;45412;54.472;18.464;2022-08-21T12:06:45;6.90;;;2.50;;
59587;SDS011;45412;54.472;18.464;2022-08-21T12:09:35;9.50;;;2.50;;
59587;SDS011;45412;54.472;18.464;2022-08-21T12:18:23;7.80;;;1.90;;
59587;SDS011;45412;54.472;18.464;2022-08-21T12:21:24;8.30;;;2.30;;
59587;SDS011;45412;54.472;18.464;2022-08-21T12:27:47;8.80;;;2.10;;
59587;SDS011;45412;54.472;18.464;2022-08-21T12:30:41;7.80;;;2.20;;
59587;SDS011;45412;54.472;18.464;2022-08-21T12:33:38;8.00;;;1.90;;
59587;SDS011;45412;54.472;18.464;2022-08-21T12:37:03;9.50;;;2.20;;
59587;SDS011;45412;54.472;18.464;2022-08-21T12:40:04;6.80;;;1.80;;
59587;SDS011;45412;54.472;18.464;2022-08-21T12:43:01;6.90;;;1.70;;
59587;SDS011;45412;54.472;18.464;2022-08-21T12:45:51;6.20;;;1.80;;
59587;SDS011;45412;54.472;18.464;2022-08-21T12:48:52;5.90;;;1.50;;
59587;SDS011;45412;54.472;18.464;2022-08-21T12:52:51;7.10;;;1.70;;
59587;SDS011;45412;54.472;18.464;2022-08-21T12:55:30;7.60;;;2.50;;
59587;SDS011;45412;54.472;18.464;2022-08-21T12:58:24;7.00;;;1.90;;
59587;SDS011;45412;54.472;18.464;2022-08-21T13:04:40;6.30;;;1.70;;
59587;SDS011;45412;54.472;18.464;2022-08-21T13:07:32;8.10;;;2.30;;
59587;SDS011;45412;54.472;18.464;2022-08-21T13:10:25;9.90;;;2.50;;
59587;SDS011;45412;54.472;18.464;2022-08-21T13:13:26;7.10;;;2.10;;
59587;SDS011;45412;54.472;18.464;2022-08-21T13:16:27;8.50;;;2.20;;
59587;SDS011;45412;54.472;18.464;2022-08-21T13:19:18;8.50;;;2.10;;
59587;SDS011;45412;54.472;18.464;2022-08-21T13:22:14;9.40;;;2.50;;
59587;SDS011;45412;54.472;18.464;2022-08-21T13:25:26;7.80;;;2.20;;
59587;SDS011;45412;54.472;18.464;2022-08-21T13:28:17;10.70;;;2.60;;
59587;SDS011;45412;54.472;18.464;2022-08-21T13:31:07;8.60;;;2.10;;
59587;SDS011;45412;54.472;18.464;2022-08-21T13:33:57;6.80;;;2.20;;
59587;SDS011;45412;54.472;18.464;2022-08-21T13:36:46;8.10;;;2.20;;
59587;SDS011;45412;54.472;18.464;2022-08-21T13:39:38;7.50;;;1.80;;
59587;SDS011;45412;54.472;18.464;2022-08-21T13:42:26;6.50;;;1.90;;
59587;SDS011;45412;54.472;18.464;2022-08-21T13:45:25;8.20;;;2.20;;
59587;SDS011;45412;54.472;18.464;2022-08-21T13:48:19;7.80;;;1.90;;
59587;SDS011;45412;54.472;18.464;2022-08-21T13:51:09;7.40;;;1.60;;
59587;SDS011;45412;54.472;18.464;2022-08-21T13:53:58;7.50;;;1.80;;
59587;SDS011;45412;54.472;18.464;2022-08-21T13:56:46;7.30;;;1.80;;
59587;SDS011;45412;54.472;18.464;2022-08-21T13:59:35;7.30;;;1.80;;
59587;SDS011;45412;54.472;18.464;2022-08-21T14:02:23;7.50;;;1.70;;
59587;SDS011;45412;54.472;18.464;2022-08-21T14:05:26;7.10;;;1.80;;
59587;SDS011;45412;54.472;18.464;2022-08-21T14:08:31;6.50;;;1.70;;
59587;SDS011;45412;54.472;18.464;2022-08-21T14:11:22;7.00;;;1.80;;
59587;SDS011;45412;54.472;18.464;2022-08-21T14:14:29;7.10;;;1.70;;
59587;SDS011;45412;54.472;18.464;2022-08-21T14:17:49;6.10;;;1.50;;
59587;SDS011;45412;54.472;18.464;2022-08-21T14:20:38;6.50;;;1.90;;
59587;SDS011;45412;54.472;18.464;2022-08-21T14:23:26;7.00;;;1.90;;
59587;SDS011;45412;54.472;18.464;2022-08-21T14:26:14;7.00;;;1.60;;
59587;SDS011;45412;54.472;18.464;2022-08-21T14:29:07;6.40;;;1.50;;
59587;SDS011;45412;54.472;18.464;2022-08-21T14:31:58;5.80;;;1.50;;
59587;SDS011;45412;54.472;18.464;2022-08-21T14:35:12;6.00;;;1.70;;
59587;SDS011;45412;54.472;18.464;2022-08-21T14:38:00;6.30;;;1.60;;
59587;SDS011;45412;54.472;18.464;2022-08-21T14:40:50;6.90;;;1.70;;
59587;SDS011;45412;54.472;18.464;2022-08-21T14:43:40;7.00;;;1.80;;
59587;SDS011;45412;54.472;18.464;2022-08-21T14:46:29;6.30;;;1.60;;
59587;SDS011;45412;54.472;18.464;2022-08-21T14:49:19;9.10;;;2.00;;
59587;SDS011;45412;54.472;18.464;2022-08-21T14:52:07;7.80;;;2.20;;
59587;SDS011;45412;54.472;18.464;2022-08-21T14:54:55;7.70;;;2.00;;
59587;SDS011;45412;54.472;18.464;2022-08-21T14:57:51;8.90;;;2.10;;
59587;SDS011;45412;54.472;18.464;2022-08-21T15:00:40;7.50;;;1.80;;
59587;SDS011;45412;54.472;18.464;2022-08-21T15:03:28;8.20;;;2.40;;
59587;SDS011;45412;54.472;18.464;2022-08-21T15:06:16;10.40;;;1.90;;
59587;SDS011;45412;54.472;18.464;2022-08-21T15:09:05;11.10;;;2.20;;
59587;SDS011;45412;54.472;18.464;2022-08-21T15:11:56;8.20;;;1.80;;
59587;SDS011;45412;54.472;18.464;2022-08-21T15:14:46;8.70;;;2.00;;
59587;SDS011;45412;54.472;18.464;2022-08-21T15:17:34;9.40;;;2.10;;
59587;SDS011;45412;54.472;18.464;2022-08-21T15:20:24;9.90;;;2.00;;
59587;SDS011;45412;54.472;18.464;2022-08-21T15:23:12;6.80;;;1.70;;
59587;SDS011;45412;54.472;18.464;2022-08-21T15:26:01;6.70;;;1.70;;
59587;SDS011;45412;54.472;18.464;2022-08-21T15:28:49;8.40;;;2.00;;
59587;SDS011;45412;54.472;18.464;2022-08-21T15:31:49;8.50;;;1.80;;
59587;SDS011;45412;54.472;18.464;2022-08-21T15:34:46;6.90;;;1.80;;
59587;SDS011;45412;54.472;18.464;2022-08-21T15:37:34;8.00;;;2.10;;
59587;SDS011;45412;54.472;18.464;2022-08-21T15:40:27;7.50;;;1.70;;
59587;SDS011;45412;54.472;18.464;2022-08-21T15:47:45;8.80;;;1.90;;
59587;SDS011;45412;54.472;18.464;2022-08-21T15:50:52;11.00;;;2.20;;
59587;SDS011;45412;54.472;18.464;2022-08-21T15:53:40;42.30;;;26.90;;
59587;SDS011;45412;54.472;18.464;2022-08-21T15:56:37;8.80;;;2.70;;
59587;SDS011;45412;54.472;18.464;2022-08-21T15:59:51;9.00;;;1.80;;
59587;SDS011;45412;54.472;18.464;2022-08-21T16:02:49;7.60;;;2.00;;
59587;SDS011;45412;54.472;18.464;2022-08-21T16:05:41;7.90;;;1.90;;
59587;SDS011;45412;54.472;18.464;2022-08-21T16:08:45;6.60;;;1.90;;
59587;SDS011;45412;54.472;18.464;2022-08-21T16:11:34;8.60;;;1.80;;
59587;SDS011;45412;54.472;18.464;2022-08-21T16:14:33;7.90;;;1.70;;
59587;SDS011;45412;54.472;18.464;2022-08-21T16:17:30;7.90;;;2.20;;
59587;SDS011;45412;54.472;18.464;2022-08-21T16:20:24;7.50;;;1.90;;
59587;SDS011;45412;54.472;18.464;2022-08-21T16:23:14;8.30;;;2.20;;
59587;SDS011;45412;54.472;18.464;2022-08-21T16:26:11;8.30;;;2.00;;
59587;SDS011;45412;54.472;18.464;2022-08-21T16:29:05;9.40;;;2.10;;
59587;SDS011;45412;54.472;18.464;2022-08-21T16:31:55;8.20;;;1.90;;
59587;SDS011;45412;54.472;18.464;2022-08-21T16:34:47;7.00;;;1.80;;
59587;SDS011;45412;54.472;18.464;2022-08-21T16:37:36;7.80;;;2.20;;
59587;SDS011;45412;54.472;18.464;2022-08-21T16:40:24;8.60;;;1.90;;
59587;SDS011;45412;54.472;18.464;2022-08-21T16:43:16;9.30;;;2.30;;
59587;SDS011;45412;54.472;18.464;2022-08-21T16:46:04;8.70;;;2.20;;
59587;SDS011;45412;54.472;18.464;2022-08-21T16:48:54;10.80;;;1.70;;
59587;SDS011;45412;54.472;18.464;2022-08-21T16:51:42;7.90;;;2.20;;
59587;SDS011;45412;54.472;18.464;2022-08-21T16:54:34;10.30;;;2.30;;
59587;SDS011;45412;54.472;18.464;2022-08-21T16:57:23;9.00;;;2.30;;
59587;SDS011;45412;54.472;18.464;2022-08-21T17:00:12;8.70;;;1.80;;
59587;SDS011;45412;54.472;18.464;2022-08-21T17:03:00;10.00;;;2.10;;
59587;SDS011;45412;54.472;18.464;2022-08-21T17:06:14;7.40;;;1.70;;
59587;SDS011;45412;54.472;18.464;2022-08-21T17:09:04;9.00;;;2.10;;
59587;SDS011;45412;54.472;18.464;2022-08-21T17:11:53;7.90;;;1.80;;
59587;SDS011;45412;54.472;18.464;2022-08-21T17:14:43;6.90;;;1.80;;
59587;SDS011;45412;54.472;18.464;2022-08-21T17:17:33;8.60;;;2.00;;
59587;SDS011;45412;54.472;18.464;2022-08-21T17:20:22;9.00;;;1.70;;
59587;SDS011;45412;54.472;18.464;2022-08-21T17:23:19;7.00;;;1.80;;
59587;SDS011;45412;54.472;18.464;2022-08-21T17:26:17;9.00;;;1.70;;
59587;SDS011;45412;54.472;18.464;2022-08-21T17:29:05;8.40;;;2.10;;
59587;SDS011;45412;54.472;18.464;2022-08-21T17:32:03;6.60;;;1.60;;
59587;SDS011;45412;54.472;18.464;2022-08-21T17:35:29;7.50;;;1.70;;
59587;SDS011;45412;54.472;18.464;2022-08-21T17:38:17;8.30;;;1.70;;
59587;SDS011;45412;54.472;18.464;2022-08-21T17:41:22;7.00;;;1.90;;
59587;SDS011;45412;54.472;18.464;2022-08-21T17:44:11;7.80;;;1.60;;
59587;SDS011;45412;54.472;18.464;2022-08-21T17:47:05;8.60;;;2.30;;
59587;SDS011;45412;54.472;18.464;2022-08-21T17:49:55;7.50;;;1.60;;
59587;SDS011;45412;54.472;18.464;2022-08-21T17:52:43;7.00;;;2.00;;
59587;SDS011;45412;54.472;18.464;2022-08-21T17:55:32;10.40;;;3.10;;
59587;SDS011;45412;54.472;18.464;2022-08-21T17:58:20;10.20;;;3.30;;
59587;SDS011;45412;54.472;18.464;2022-08-21T18:01:09;8.00;;;2.30;;
59587;SDS011;45412;54.472;18.464;2022-08-21T18:03:59;8.40;;;2.60;;
59587;SDS011;45412;54.472;18.464;2022-08-21T18:06:47;7.80;;;2.50;;
59587;SDS011;45412;54.472;18.464;2022-08-21T18:09:35;9.80;;;2.30;;
59587;SDS011;45412;54.472;18.464;2022-08-21T18:12:26;6.70;;;2.10;;
59587;SDS011;45412;54.472;18.464;2022-08-21T18:15:18;8.80;;;2.10;;
59587;SDS011;45412;54.472;18.464;2022-08-21T18:18:07;7.30;;;2.10;;
59587;SDS011;45412;54.472;18.464;2022-08-21T18:20:55;7.90;;;2.20;;